createdAt,value
2016-08-28T00:00:52.829Z,0
2016-08-28T00:01:37.717Z,0
2016-08-28T00:02:37.489Z,0
2016-08-28T00:03:38.165Z,0
2016-08-28T00:04:37.457Z,0
2016-08-28T00:05:37.473Z,0
2016-08-28T00:06:37.465Z,0
2016-08-28T00:07:37.465Z,0
2016-08-28T00:08:37.453Z,0
2016-08-28T00:09:37.483Z,0
2016-08-28T00:10:38.191Z,0
2016-08-28T00:11:37.473Z,0
2016-08-28T00:12:37.454Z,0
2016-08-28T00:13:37.456Z,0
2016-08-28T00:14:37.476Z,0
2016-08-28T00:15:38.161Z,0
2016-08-28T00:16:37.476Z,0
2016-08-28T00:17:37.459Z,0
2016-08-28T00:18:37.476Z,0
2016-08-28T00:19:37.471Z,0
2016-08-28T00:20:37.449Z,0
2016-08-28T00:21:37.477Z,0
2016-08-28T00:22:37.450Z,0
2016-08-28T00:23:37.465Z,0
2016-08-28T00:24:37.448Z,0
2016-08-28T00:25:37.452Z,0
2016-08-28T00:26:37.469Z,0
2016-08-28T00:27:37.477Z,0
2016-08-28T00:28:37.443Z,0
2016-08-28T00:29:38.912Z,0
2016-08-28T00:30:39.068Z,0
2016-08-28T00:31:39.054Z,0
2016-08-28T00:32:39.494Z,0
2016-08-28T00:33:37.620Z,0
2016-08-28T00:34:37.437Z,0
2016-08-28T00:35:37.953Z,0
2016-08-28T00:36:37.439Z,0
2016-08-28T00:37:37.434Z,0
2016-08-28T00:39:38.708Z,0
2016-08-28T00:40:39.518Z,0
2016-08-28T00:41:38.211Z,0
2016-08-28T00:42:38.576Z,0
2016-08-28T00:43:38.392Z,0
2016-08-28T00:44:37.474Z,0
2016-08-28T00:45:37.692Z,0
2016-08-28T00:46:37.496Z,0
2016-08-28T00:47:37.469Z,0
2016-08-28T00:48:37.441Z,0
2016-08-28T00:49:37.433Z,0
2016-08-28T00:50:37.427Z,0
2016-08-28T00:51:37.431Z,0
2016-08-28T00:52:37.433Z,0
2016-08-28T00:53:37.442Z,0
2016-08-28T00:54:37.436Z,0
2016-08-28T00:55:37.430Z,0
2016-08-28T00:56:37.435Z,0
2016-08-28T00:57:37.419Z,0
2016-08-28T00:58:37.443Z,0
2016-08-28T00:59:37.415Z,0
2016-08-28T01:00:37.416Z,0
2016-08-28T01:01:37.418Z,0
2016-08-28T01:02:37.425Z,0
2016-08-28T01:03:37.415Z,0
2016-08-28T01:04:37.440Z,0
2016-08-28T01:05:37.421Z,0
2016-08-28T01:06:37.582Z,0
2016-08-28T01:07:38.314Z,0
2016-08-28T01:08:52.478Z,0
2016-08-28T01:09:37.917Z,0
2016-08-28T01:10:37.419Z,0
2016-08-28T01:11:38.621Z,0
2016-08-28T01:12:37.433Z,0
2016-08-28T01:13:37.402Z,0
2016-08-28T01:14:37.520Z,0
2016-08-28T01:15:52.334Z,0
2016-08-28T01:16:37.675Z,0
2016-08-28T01:19:37.402Z,0
2016-08-28T01:20:38.393Z,0
2016-08-28T01:21:37.407Z,0
2016-08-28T01:22:37.404Z,0
2016-08-28T01:23:37.399Z,0
2016-08-28T01:24:37.399Z,0
2016-08-28T01:25:37.394Z,0
2016-08-28T01:26:37.384Z,0
2016-08-28T01:27:37.393Z,0
2016-08-28T01:28:38.118Z,0
2016-08-28T01:29:37.400Z,0
2016-08-28T01:30:37.391Z,0
2016-08-28T01:31:37.394Z,0
2016-08-28T01:32:38.088Z,0
2016-08-28T01:33:37.384Z,0
2016-08-28T01:34:37.411Z,0
2016-08-28T01:35:37.381Z,0
2016-08-28T01:36:37.375Z,0
2016-08-28T01:37:37.390Z,0
2016-08-28T01:38:37.389Z,0
2016-08-28T01:39:37.373Z,0
2016-08-28T01:40:37.381Z,0
2016-08-28T01:41:37.374Z,0
2016-08-28T01:42:37.381Z,0
2016-08-28T01:43:37.370Z,0
2016-08-28T01:44:37.385Z,0
2016-08-28T01:45:37.360Z,0
2016-08-28T01:46:37.390Z,0
2016-08-28T01:47:37.646Z,0
2016-08-28T01:48:38.154Z,0
2016-08-28T01:49:38.249Z,0
2016-08-28T01:50:39.005Z,0
2016-08-28T01:51:37.378Z,0
2016-08-28T01:52:37.361Z,0
2016-08-28T01:53:37.358Z,0
2016-08-28T01:54:37.354Z,0
2016-08-28T01:55:37.354Z,0
2016-08-28T01:56:40.630Z,0
2016-08-28T01:57:39.451Z,0
2016-08-28T01:58:38.367Z,0
2016-08-28T01:59:37.374Z,0
2016-08-28T02:00:38.002Z,0
2016-08-28T02:01:38.164Z,0
2016-08-28T02:02:37.360Z,0
2016-08-28T02:03:37.348Z,0
2016-08-28T02:04:37.334Z,0
2016-08-28T02:05:37.361Z,0
2016-08-28T02:06:37.349Z,0
2016-08-28T02:07:37.359Z,0
2016-08-28T02:08:37.324Z,0
2016-08-28T02:09:37.346Z,0
2016-08-28T02:10:37.325Z,0
2016-08-28T02:11:37.323Z,0
2016-08-28T02:12:37.323Z,0
2016-08-28T02:13:37.326Z,0
2016-08-28T02:14:37.322Z,0
2016-08-28T02:15:38.003Z,0
2016-08-28T02:16:37.321Z,0
2016-08-28T02:17:37.321Z,0
2016-08-28T02:18:37.325Z,0
2016-08-28T02:19:37.333Z,0
2016-08-28T02:20:37.323Z,0
2016-08-28T02:21:37.329Z,0
2016-08-28T02:22:37.318Z,0
2016-08-28T02:23:37.305Z,0
2016-08-28T02:24:38.280Z,0
2016-08-28T02:25:38.005Z,0
2016-08-28T02:26:37.953Z,0
2016-08-28T02:27:37.698Z,0
2016-08-28T02:28:37.769Z,0
2016-08-28T02:29:37.298Z,0
2016-08-28T02:30:37.858Z,0
2016-08-28T02:31:37.300Z,0
2016-08-28T02:32:37.290Z,0
2016-08-28T02:33:37.285Z,0
2016-08-28T02:34:52.961Z,0
2016-08-28T02:35:37.651Z,0
2016-08-28T02:36:37.347Z,0
2016-08-28T02:37:37.528Z,0
2016-08-28T02:38:37.289Z,0
2016-08-28T02:39:37.826Z,0
2016-08-28T02:40:37.276Z,0
2016-08-28T02:41:37.272Z,0
2016-08-28T02:42:37.300Z,0
2016-08-28T02:43:37.287Z,0
2016-08-28T02:44:37.282Z,0
2016-08-28T02:45:37.268Z,0
2016-08-28T02:46:37.262Z,0
2016-08-28T02:47:37.280Z,0
2016-08-28T02:48:37.254Z,0
2016-08-28T02:49:37.251Z,0
2016-08-28T02:50:37.255Z,0
2016-08-28T02:51:37.270Z,0
2016-08-28T02:52:37.248Z,0
2016-08-28T02:53:37.269Z,0
2016-08-28T02:54:37.245Z,0
2016-08-28T02:55:37.259Z,0
2016-08-28T02:56:37.240Z,0
2016-08-28T02:57:37.239Z,0
2016-08-28T02:58:37.256Z,0
2016-08-28T02:59:37.235Z,0
2016-08-28T03:00:37.248Z,0
2016-08-28T03:01:37.236Z,0
2016-08-28T03:02:37.239Z,0
2016-08-28T03:03:37.249Z,0
2016-08-28T03:04:37.246Z,0
2016-08-28T03:06:40.503Z,0
2016-08-28T03:07:39.405Z,0
2016-08-28T03:08:38.311Z,0
2016-08-28T03:09:37.317Z,0
2016-08-28T03:10:37.209Z,0
2016-08-28T03:11:37.203Z,0
2016-08-28T03:12:37.218Z,0
2016-08-28T03:13:37.203Z,0
2016-08-28T03:14:38.741Z,0
2016-08-28T03:15:40.156Z,0
2016-08-28T03:16:37.504Z,0
2016-08-28T03:17:37.199Z,0
2016-08-28T03:18:37.574Z,0
2016-08-28T03:19:37.975Z,0
2016-08-28T03:20:37.301Z,0
2016-08-28T03:21:37.184Z,0
2016-08-28T03:22:37.217Z,0
2016-08-28T03:23:37.193Z,0
2016-08-28T03:24:37.196Z,0
2016-08-28T03:25:37.185Z,0
2016-08-28T03:26:37.204Z,0
2016-08-28T03:27:37.178Z,4
2016-08-28T03:28:37.176Z,4
2016-08-28T03:29:37.180Z,0
2016-08-28T03:30:37.169Z,4
2016-08-28T03:31:37.174Z,4
2016-08-28T03:32:37.183Z,4
2016-08-28T03:33:37.174Z,4
2016-08-28T03:34:37.191Z,4
2016-08-28T03:35:37.158Z,8
2016-08-28T03:36:37.163Z,8
2016-08-28T03:37:37.155Z,8
2016-08-28T03:38:37.163Z,8
2016-08-28T03:39:37.163Z,12
2016-08-28T03:40:37.174Z,12
2016-08-28T03:41:37.151Z,16
2016-08-28T03:42:37.153Z,20
2016-08-28T03:43:37.601Z,20
2016-08-28T03:44:38.237Z,24
2016-08-28T03:45:52.066Z,28
2016-08-28T03:46:37.695Z,32
2016-08-28T03:47:38.299Z,36
2016-08-28T03:48:37.146Z,44
2016-08-28T03:49:37.362Z,52
2016-08-28T03:50:37.152Z,60
2016-08-28T03:51:37.122Z,68
2016-08-28T03:52:38.931Z,80
2016-08-28T03:53:38.494Z,92
2016-08-28T03:55:37.793Z,120
2016-08-28T03:56:37.927Z,132
2016-08-28T03:57:37.149Z,152
2016-08-28T03:58:37.177Z,168
2016-08-28T03:59:37.273Z,188
2016-08-28T04:00:37.108Z,208
2016-08-28T04:01:37.114Z,236
2016-08-28T04:02:37.104Z,260
2016-08-28T04:03:37.121Z,288
2016-08-28T04:04:37.099Z,320
2016-08-28T04:05:37.100Z,352
2016-08-28T04:06:37.099Z,384
2016-08-28T04:07:37.125Z,420
2016-08-28T04:08:37.097Z,456
2016-08-28T04:09:37.200Z,496
2016-08-28T04:10:37.078Z,536
2016-08-28T04:11:37.088Z,584
2016-08-28T04:12:37.091Z,632
2016-08-28T04:13:37.086Z,680
2016-08-28T04:14:37.075Z,728
2016-08-28T04:15:37.079Z,780
2016-08-28T04:16:37.066Z,836
2016-08-28T04:17:37.084Z,896
2016-08-28T04:18:37.057Z,960
2016-08-28T04:19:37.066Z,1020
2016-08-28T04:20:37.064Z,1084
2016-08-28T04:21:37.068Z,1152
2016-08-28T04:22:37.066Z,1224
2016-08-28T04:23:38.000Z,1296
2016-08-28T04:24:38.944Z,1376
2016-08-28T04:25:38.332Z,1492
2016-08-28T04:26:39.339Z,1824
2016-08-28T04:27:37.450Z,2204
2016-08-28T04:28:38.139Z,2492
2016-08-28T04:29:37.750Z,2660
2016-08-28T04:30:37.065Z,2820
2016-08-28T04:31:37.099Z,3068
2016-08-28T04:32:40.500Z,3300
2016-08-28T04:34:40.020Z,3588
2016-08-28T04:35:37.436Z,3812
2016-08-28T04:36:38.689Z,4148
2016-08-28T04:37:37.053Z,4560
2016-08-28T04:38:37.021Z,4876
2016-08-28T04:39:37.026Z,5036
2016-08-28T04:40:37.026Z,5192
2016-08-28T04:41:37.018Z,5636
2016-08-28T04:42:37.019Z,5976
2016-08-28T04:43:37.006Z,6276
2016-08-28T04:44:37.025Z,6244
2016-08-28T04:45:37.007Z,6256
2016-08-28T04:46:37.027Z,6832
2016-08-28T04:47:37.025Z,7212
2016-08-28T04:48:37.014Z,7372
2016-08-28T04:49:37.005Z,7616
2016-08-28T04:50:37.001Z,7660
2016-08-28T04:51:37.018Z,7676
2016-08-28T04:52:37.010Z,8244
2016-08-28T04:53:37.042Z,8680
2016-08-28T04:54:37.010Z,9012
2016-08-28T04:55:37.011Z,9276
2016-08-28T04:56:37.007Z,9280
2016-08-28T04:57:37.026Z,9028
2016-08-28T04:58:37.004Z,9356
2016-08-28T04:59:37.025Z,10100
2016-08-28T05:00:37.025Z,10624
2016-08-28T05:01:38.127Z,11072
2016-08-28T05:02:38.273Z,11032
2016-08-28T05:03:37.128Z,11368
2016-08-28T05:04:37.174Z,11596
2016-08-28T05:05:37.186Z,11852
2016-08-28T05:06:37.028Z,12068
2016-08-28T05:07:37.053Z,12432
2016-08-28T05:08:37.044Z,12652
2016-08-28T05:09:37.037Z,13184
2016-08-28T05:10:37.489Z,13792
2016-08-28T05:11:37.394Z,13856
2016-08-28T05:13:52.370Z,14944
2016-08-28T05:14:37.057Z,14656
2016-08-28T05:15:37.045Z,14592
2016-08-28T05:16:37.082Z,14816
2016-08-28T05:17:37.061Z,15136
2016-08-28T05:18:37.067Z,15168
2016-08-28T05:19:37.077Z,15968
2016-08-28T05:20:37.072Z,16160
2016-08-28T05:21:37.085Z,15680
2016-08-28T05:22:37.111Z,16608
2016-08-28T05:23:37.093Z,17184
2016-08-28T05:24:37.136Z,17216
2016-08-28T05:25:37.108Z,17760
2016-08-28T05:26:37.133Z,18784
2016-08-28T05:27:37.122Z,18560
2016-08-28T05:28:37.141Z,17728
2016-08-28T05:29:37.167Z,17408
2016-08-28T05:30:37.138Z,18240
2016-08-28T05:31:37.143Z,18816
2016-08-28T05:32:37.176Z,18304
2016-08-28T05:33:37.165Z,17536
2016-08-28T05:34:37.170Z,18496
2016-08-28T05:35:37.181Z,19648
2016-08-28T05:36:37.193Z,19872
2016-08-28T05:37:37.204Z,19648
2016-08-28T05:38:37.218Z,18944
2016-08-28T05:39:37.209Z,18592
2016-08-28T05:40:37.233Z,19296
2016-08-28T05:41:39.388Z,20096
2016-08-28T05:42:39.775Z,20128
2016-08-28T05:43:39.782Z,19904
2016-08-28T05:44:39.684Z,21120
2016-08-28T05:45:39.062Z,21856
2016-08-28T05:46:37.345Z,21440
2016-08-28T05:47:37.335Z,21184
2016-08-28T05:48:37.286Z,21280
2016-08-28T05:49:37.295Z,21280
2016-08-28T05:50:38.825Z,21408
2016-08-28T05:51:39.204Z,21344
2016-08-28T05:52:37.691Z,21280
2016-08-28T05:53:37.799Z,21152
2016-08-28T05:54:37.561Z,20640
2016-08-28T05:55:38.174Z,20640
2016-08-28T05:56:37.372Z,21056
2016-08-28T05:57:37.387Z,21280
2016-08-28T05:58:37.392Z,22336
2016-08-28T05:59:37.410Z,21664
2016-08-28T06:00:37.412Z,20352
2016-08-28T06:01:37.414Z,20288
2016-08-28T06:02:37.443Z,20800
2016-08-28T06:03:37.449Z,20448
2016-08-28T06:04:37.469Z,20608
2016-08-28T06:05:37.460Z,20512
2016-08-28T06:06:37.492Z,20608
2016-08-28T06:07:37.480Z,21568
2016-08-28T06:08:37.498Z,22848
2016-08-28T06:09:37.512Z,21216
2016-08-28T06:10:37.526Z,17856
2016-08-28T06:11:37.546Z,13952
2016-08-28T06:12:38.247Z,13260
2016-08-28T06:13:37.555Z,14004
2016-08-28T06:14:37.564Z,13952
2016-08-28T06:15:37.590Z,14656
2016-08-28T06:16:37.586Z,16800
2016-08-28T06:17:37.617Z,19328
2016-08-28T06:18:37.600Z,21056
2016-08-28T06:19:39.790Z,23104
2016-08-28T06:20:38.382Z,24352
2016-08-28T06:21:38.107Z,23168
2016-08-28T06:22:38.150Z,21440
2016-08-28T06:23:38.130Z,20992
2016-08-28T06:24:37.677Z,20896
2016-08-28T06:25:39.213Z,22016
2016-08-28T06:26:37.703Z,23040
2016-08-28T06:27:37.719Z,22560
2016-08-28T06:28:38.869Z,23552
2016-08-28T06:29:38.853Z,24032
2016-08-28T06:30:39.146Z,21632
2016-08-28T06:31:41.012Z,18464
2016-08-28T06:35:42.050Z,15264
2016-08-28T06:36:40.861Z,16544
2016-08-28T06:38:37.840Z,17024
2016-08-28T06:39:37.846Z,17280
2016-08-28T06:40:37.858Z,17184
2016-08-28T06:41:37.876Z,17120
2016-08-28T06:42:37.885Z,17536
2016-08-28T06:43:37.895Z,17792
2016-08-28T06:44:37.931Z,18048
2016-08-28T06:45:37.923Z,17536
2016-08-28T06:46:37.925Z,18016
2016-08-28T06:47:37.937Z,18720
2016-08-28T06:48:37.958Z,19360
2016-08-28T06:49:37.973Z,19616
2016-08-28T06:50:37.996Z,20288
2016-08-28T06:51:38.000Z,20992
2016-08-28T06:52:38.030Z,21152
2016-08-28T06:53:38.022Z,21952
2016-08-28T06:54:38.719Z,22880
2016-08-28T06:55:38.065Z,23488
2016-08-28T06:56:38.055Z,23616
2016-08-28T06:57:38.061Z,23872
2016-08-28T06:58:38.103Z,22912
2016-08-28T06:59:41.191Z,22336
2016-08-28T07:00:38.372Z,22816
2016-08-28T07:01:40.497Z,23424
2016-08-28T07:02:38.136Z,23488
2016-08-28T07:03:39.618Z,23648
2016-08-28T07:04:38.405Z,24256
2016-08-28T07:05:38.973Z,24544
2016-08-28T07:06:38.212Z,24288
2016-08-28T07:07:38.191Z,23680
2016-08-28T07:08:39.431Z,24320
2016-08-28T07:09:40.285Z,24800
2016-08-28T07:10:40.905Z,24800
2016-08-28T07:11:39.414Z,24672
2016-08-28T07:12:38.689Z,25248
2016-08-28T07:13:38.285Z,25248
2016-08-28T07:14:38.476Z,25216
2016-08-28T07:15:38.512Z,25504
2016-08-28T07:16:38.308Z,25504
2016-08-28T07:17:38.325Z,25088
2016-08-28T07:18:38.344Z,24832
2016-08-28T07:19:38.377Z,24192
2016-08-28T07:20:38.358Z,24416
2016-08-28T07:21:38.372Z,25088
2016-08-28T07:22:38.397Z,26112
2016-08-28T07:23:38.423Z,25568
2016-08-28T07:24:38.421Z,25632
2016-08-28T07:25:38.451Z,25664
2016-08-28T07:26:38.444Z,26464
2016-08-28T07:27:38.480Z,25920
2016-08-28T07:28:38.469Z,24800
2016-08-28T07:29:38.501Z,25120
2016-08-28T07:30:38.494Z,25824
2016-08-28T07:31:38.529Z,26144
2016-08-28T07:32:38.525Z,26272
2016-08-28T07:33:38.550Z,25920
2016-08-28T07:34:38.577Z,25696
2016-08-28T07:35:38.580Z,25856
2016-08-28T07:36:38.601Z,25152
2016-08-28T07:37:53.535Z,23424
2016-08-28T07:38:39.155Z,23104
2016-08-28T07:39:38.999Z,23360
2016-08-28T07:40:38.945Z,23712
2016-08-28T07:41:39.212Z,23488
2016-08-28T07:42:38.660Z,23648
2016-08-28T07:43:38.686Z,24064
2016-08-28T07:44:38.704Z,24384
2016-08-28T07:45:38.701Z,25248
2016-08-28T07:46:38.913Z,25984
2016-08-28T07:47:39.596Z,26528
2016-08-28T07:49:54.419Z,24992
2016-08-28T07:50:38.985Z,24480
2016-08-28T07:51:38.808Z,23840
2016-08-28T07:52:38.795Z,23584
2016-08-28T07:53:38.832Z,23648
2016-08-28T07:54:38.867Z,24416
2016-08-28T07:55:38.859Z,24832
2016-08-28T07:56:39.558Z,24928
2016-08-28T07:57:38.886Z,24672
2016-08-28T07:58:38.878Z,24064
2016-08-28T07:59:38.900Z,24032
2016-08-28T08:00:38.910Z,24448
2016-08-28T08:01:38.927Z,24928
2016-08-28T08:02:38.961Z,25248
2016-08-28T08:03:39.645Z,25440
2016-08-28T08:04:38.986Z,25344
2016-08-28T08:05:38.973Z,25248
2016-08-28T08:06:38.989Z,25344
2016-08-28T08:07:39.008Z,25600
2016-08-28T08:08:39.028Z,25344
2016-08-28T08:09:39.087Z,24992
2016-08-28T08:10:39.069Z,25056
2016-08-28T08:11:39.063Z,25536
2016-08-28T08:12:39.077Z,25728
2016-08-28T08:13:39.098Z,25568
2016-08-28T08:14:39.097Z,25568
2016-08-28T08:15:39.108Z,25536
2016-08-28T08:16:39.134Z,26016
2016-08-28T08:17:39.143Z,25760
2016-08-28T08:18:39.180Z,24992
2016-08-28T08:19:39.165Z,24768
2016-08-28T08:20:39.226Z,24704
2016-08-28T08:21:39.208Z,24992
2016-08-28T08:22:39.218Z,24928
2016-08-28T08:23:39.219Z,25152
2016-08-28T08:24:39.270Z,25856
2016-08-28T08:25:39.272Z,26464
2016-08-28T08:26:39.282Z,24704
2016-08-28T08:27:39.276Z,14856
2016-08-28T08:28:39.287Z,7244
2016-08-28T08:29:39.316Z,6900
2016-08-28T08:30:39.310Z,6900
2016-08-28T08:31:39.346Z,6924
2016-08-28T08:32:39.340Z,6940
2016-08-28T08:33:39.356Z,6964
2016-08-28T08:34:39.358Z,6960
2016-08-28T08:35:39.404Z,6960
2016-08-28T08:36:39.385Z,6984
2016-08-28T08:37:39.400Z,6992
2016-08-28T08:38:39.413Z,7024
2016-08-28T08:39:39.407Z,7076
2016-08-28T08:40:39.433Z,7104
2016-08-28T08:41:39.433Z,7128
2016-08-28T08:42:39.465Z,7172
2016-08-28T08:43:39.445Z,7208
2016-08-28T08:44:39.454Z,7228
2016-08-28T08:45:39.500Z,7252
2016-08-28T08:46:39.483Z,7272
2016-08-28T08:47:39.502Z,7284
2016-08-28T08:48:39.500Z,7316
2016-08-28T08:49:39.507Z,7336
2016-08-28T08:50:39.502Z,7352
2016-08-28T08:51:39.541Z,7384
2016-08-28T08:52:39.520Z,7396
2016-08-28T08:53:39.545Z,7416
2016-08-28T08:54:39.549Z,7436
2016-08-28T08:55:39.863Z,7464
2016-08-28T08:56:40.156Z,7476
2016-08-28T08:57:39.874Z,7492
2016-08-28T08:58:39.882Z,7508
2016-08-28T08:59:40.336Z,7500
2016-08-28T09:00:40.067Z,7484
2016-08-28T09:01:39.598Z,7492
2016-08-28T09:02:39.606Z,7516
2016-08-28T09:03:39.636Z,7536
2016-08-28T09:04:40.120Z,7552
2016-08-28T09:05:40.027Z,7568
2016-08-28T09:06:39.923Z,7540
2016-08-28T09:07:40.335Z,7524
2016-08-28T09:08:39.646Z,7512
2016-08-28T09:09:40.712Z,7508
2016-08-28T09:10:40.001Z,7488
2016-08-28T09:11:39.698Z,7456
2016-08-28T09:12:39.666Z,7428
2016-08-28T09:13:39.682Z,7412
2016-08-28T09:14:39.686Z,7396
2016-08-28T09:15:39.709Z,7392
2016-08-28T09:16:39.707Z,7360
2016-08-28T09:17:39.716Z,7352
2016-08-28T09:18:39.716Z,7352
2016-08-28T09:19:39.708Z,7344
2016-08-28T09:20:39.727Z,7368
2016-08-28T09:21:39.734Z,7364
2016-08-28T09:22:39.756Z,7328
2016-08-28T09:23:39.741Z,7316
2016-08-28T09:24:39.742Z,7380
2016-08-28T09:25:39.752Z,7420
2016-08-28T09:26:39.755Z,7468
2016-08-28T09:27:39.762Z,7480
2016-08-28T09:28:39.787Z,7572
2016-08-28T09:29:39.774Z,7572
2016-08-28T09:30:39.785Z,7592
2016-08-28T09:31:39.802Z,7632
2016-08-28T09:32:39.797Z,7728
2016-08-28T09:33:39.793Z,7836
2016-08-28T09:34:39.819Z,7880
2016-08-28T09:35:39.815Z,7944
2016-08-28T09:36:39.833Z,8004
2016-08-28T09:37:39.824Z,8072
2016-08-28T09:38:39.840Z,8184
2016-08-28T09:39:39.843Z,8244
2016-08-28T09:40:39.856Z,8128
2016-08-28T09:41:39.869Z,7960
2016-08-28T09:42:39.893Z,8240
2016-08-28T09:43:39.866Z,8368
2016-08-28T09:44:39.889Z,8516
2016-08-28T09:45:39.889Z,8504
2016-08-28T09:46:39.901Z,8336
2016-08-28T09:47:39.894Z,8252
2016-08-28T09:48:39.906Z,8364
2016-08-28T09:49:39.912Z,8544
2016-08-28T09:50:39.926Z,8652
2016-08-28T09:51:39.942Z,8628
2016-08-28T09:52:39.926Z,8716
2016-08-28T09:53:39.943Z,8836
2016-08-28T09:54:39.947Z,8876
2016-08-28T09:55:39.952Z,8912
2016-08-28T09:56:39.984Z,8924
2016-08-28T09:57:39.959Z,8956
2016-08-28T09:58:39.985Z,8948
2016-08-28T09:59:39.974Z,8752
2016-08-28T10:00:40.007Z,8616
2016-08-28T10:01:40.018Z,8536
2016-08-28T10:02:39.997Z,8380
2016-08-28T10:03:40.002Z,8384
2016-08-28T10:04:40.007Z,8260
2016-08-28T10:05:40.039Z,8212
2016-08-28T10:06:40.040Z,8352
2016-08-28T10:07:40.045Z,8564
2016-08-28T10:08:40.034Z,8680
2016-08-28T10:09:40.055Z,8688
2016-08-28T10:10:40.152Z,8844
2016-08-28T10:11:40.054Z,8996
2016-08-28T10:12:40.075Z,9196
2016-08-28T10:13:40.454Z,9336
2016-08-28T10:14:40.839Z,9476
2016-08-28T10:15:55.776Z,9820
2016-08-28T10:16:41.297Z,9940
2016-08-28T10:17:41.605Z,10104
2016-08-28T10:18:40.499Z,10344
2016-08-28T10:19:43.208Z,10580
2016-08-28T10:20:40.691Z,10796
2016-08-28T10:21:41.162Z,10900
2016-08-28T10:22:40.597Z,10980
2016-08-28T10:23:41.066Z,11092
2016-08-28T10:24:40.227Z,11212
2016-08-28T10:25:41.514Z,11412
2016-08-28T10:26:40.270Z,11492
2016-08-28T10:27:42.837Z,11612
2016-08-28T10:28:41.818Z,11712
2016-08-28T10:29:42.831Z,11824
2016-08-28T10:30:40.345Z,11872
2016-08-28T10:31:40.197Z,11956
2016-08-28T10:32:40.590Z,12108
2016-08-28T10:33:40.712Z,12172
2016-08-28T10:34:40.392Z,12108
2016-08-28T10:35:40.223Z,11996
2016-08-28T10:36:40.235Z,11976
2016-08-28T10:37:40.250Z,11996
2016-08-28T10:38:40.282Z,12020
2016-08-28T10:39:40.258Z,11972
2016-08-28T10:40:40.262Z,11864
2016-08-28T10:41:40.275Z,11776
2016-08-28T10:42:40.299Z,11680
2016-08-28T10:43:40.293Z,11608
2016-08-28T10:44:40.299Z,11512
2016-08-28T10:45:40.302Z,11420
2016-08-28T10:46:40.316Z,11344
2016-08-28T10:47:40.332Z,11252
2016-08-28T10:48:40.379Z,11196
2016-08-28T10:49:40.346Z,11184
2016-08-28T10:50:40.364Z,11076
2016-08-28T10:51:40.360Z,10996
2016-08-28T10:52:40.371Z,10880
2016-08-28T10:53:40.417Z,10872
2016-08-28T10:54:40.375Z,10824
2016-08-28T10:55:40.393Z,10804
2016-08-28T10:56:40.410Z,10748
2016-08-28T10:57:40.414Z,10724
2016-08-28T10:58:40.412Z,10792
2016-08-28T10:59:40.425Z,10916
2016-08-28T11:00:40.449Z,11028
2016-08-28T11:01:40.447Z,11168
2016-08-28T11:02:40.474Z,11212
2016-08-28T11:03:40.460Z,11288
2016-08-28T11:04:40.471Z,11392
2016-08-28T11:05:40.467Z,11480
2016-08-28T11:06:40.483Z,11580
2016-08-28T11:07:40.490Z,11676
2016-08-28T11:08:40.519Z,11728
2016-08-28T11:09:40.512Z,11792
2016-08-28T11:10:40.620Z,11764
2016-08-28T11:11:40.522Z,11712
2016-08-28T11:12:40.537Z,11652
2016-08-28T11:13:40.552Z,11644
2016-08-28T11:14:40.560Z,11564
2016-08-28T11:15:40.552Z,11576
2016-08-28T11:16:40.585Z,11536
2016-08-28T11:17:40.585Z,11520
2016-08-28T11:18:40.606Z,11388
2016-08-28T11:19:40.606Z,11356
2016-08-28T11:20:40.619Z,11388
2016-08-28T11:21:40.604Z,11340
2016-08-28T11:22:40.636Z,11296
2016-08-28T11:23:40.621Z,11244
2016-08-28T11:24:40.683Z,11152
2016-08-28T11:25:40.656Z,11072
2016-08-28T11:26:40.665Z,10964
2016-08-28T11:27:40.657Z,10804
2016-08-28T11:28:40.665Z,10792
2016-08-28T11:29:40.683Z,10880
2016-08-28T11:30:40.704Z,10852
2016-08-28T11:31:41.080Z,10924
2016-08-28T11:32:41.351Z,11064
2016-08-28T11:33:41.418Z,11288
2016-08-28T11:34:40.717Z,11376
2016-08-28T11:35:41.503Z,11548
2016-08-28T11:36:41.051Z,11672
2016-08-28T11:37:40.784Z,11792
2016-08-28T11:38:41.963Z,12016
2016-08-28T11:39:42.692Z,12156
2016-08-28T11:40:42.910Z,12128
2016-08-28T11:41:40.891Z,12108
2016-08-28T11:42:42.422Z,12220
2016-08-28T11:43:41.502Z,12400
2016-08-28T11:44:41.402Z,12536
2016-08-28T11:45:43.135Z,12500
2016-08-28T11:46:42.511Z,12624
2016-08-28T11:47:41.125Z,12660
2016-08-28T11:48:41.645Z,12780
2016-08-28T11:49:41.306Z,12948
2016-08-28T11:50:40.854Z,13036
2016-08-28T11:51:40.856Z,13172
2016-08-28T11:52:41.584Z,13576
2016-08-28T11:53:40.883Z,13608
2016-08-28T11:54:40.899Z,13728
2016-08-28T11:55:40.909Z,13804
2016-08-28T11:56:40.903Z,13920
2016-08-28T11:57:40.919Z,14028
2016-08-28T11:58:40.952Z,14108
2016-08-28T11:59:40.936Z,14088
2016-08-28T12:00:40.967Z,14032
2016-08-28T12:01:40.951Z,13944
2016-08-28T12:02:40.972Z,13880
2016-08-28T12:03:40.982Z,13940
2016-08-28T12:04:40.998Z,13992
2016-08-28T12:05:41.006Z,14068
2016-08-28T12:06:41.004Z,14300
2016-08-28T12:07:41.717Z,14404
2016-08-28T12:08:41.026Z,14452
2016-08-28T12:09:41.035Z,14544
2016-08-28T12:10:41.061Z,14496
2016-08-28T12:11:41.055Z,14440
2016-08-28T12:12:41.055Z,14480
2016-08-28T12:13:41.066Z,14508
2016-08-28T12:14:41.086Z,14416
2016-08-28T12:15:41.085Z,14264
2016-08-28T12:16:41.119Z,14164
2016-08-28T12:17:41.101Z,14040
2016-08-28T12:18:41.129Z,14056
2016-08-28T12:19:41.123Z,14356
2016-08-28T12:20:41.138Z,14768
2016-08-28T12:21:41.148Z,15024
2016-08-28T12:22:41.169Z,15188
2016-08-28T12:23:41.158Z,15252
2016-08-28T12:24:41.193Z,15088
2016-08-28T12:25:41.187Z,14924
2016-08-28T12:26:41.187Z,14824
2016-08-28T12:27:41.196Z,14692
2016-08-28T12:28:41.214Z,14684
2016-08-28T12:29:41.222Z,14548
2016-08-28T12:30:41.232Z,14780
2016-08-28T12:31:41.237Z,14776
2016-08-28T12:32:41.277Z,14776
2016-08-28T12:33:41.262Z,14608
2016-08-28T12:34:41.285Z,14480
2016-08-28T12:35:41.276Z,14608
2016-08-28T12:36:41.291Z,14592
2016-08-28T12:37:41.296Z,14416
2016-08-28T12:38:41.340Z,14204
2016-08-28T12:39:41.329Z,13896
2016-08-28T12:40:41.331Z,13688
2016-08-28T12:41:41.333Z,13476
2016-08-28T12:42:41.376Z,13384
2016-08-28T12:43:41.353Z,13460
2016-08-28T12:44:41.366Z,13492
2016-08-28T12:45:41.374Z,13344
2016-08-28T12:46:41.384Z,13316
2016-08-28T12:47:41.389Z,13316
2016-08-28T12:48:41.425Z,13224
2016-08-28T12:49:42.059Z,13040
2016-08-28T12:50:42.576Z,12788
2016-08-28T12:51:41.430Z,12532
2016-08-28T12:52:41.457Z,12396
2016-08-28T12:53:42.950Z,12168
2016-08-28T12:54:42.990Z,12012
2016-08-28T12:55:44.281Z,11904
2016-08-28T12:56:42.852Z,11744
2016-08-28T12:57:41.548Z,11680
2016-08-28T12:58:43.963Z,11600
2016-08-28T12:59:42.281Z,11568
2016-08-28T13:00:41.937Z,11600
2016-08-28T13:01:41.535Z,11668
2016-08-28T13:02:42.391Z,11796
2016-08-28T13:03:44.948Z,11856
2016-08-28T13:04:43.189Z,11908
2016-08-28T13:05:41.569Z,11772
2016-08-28T13:06:43.038Z,11692
2016-08-28T13:07:42.964Z,11652
2016-08-28T13:08:41.910Z,11588
2016-08-28T13:09:41.615Z,11524
2016-08-28T13:10:41.681Z,11516
2016-08-28T13:11:41.659Z,11536
2016-08-28T13:12:41.665Z,11472
2016-08-28T13:13:41.665Z,11412
2016-08-28T13:14:41.664Z,11444
2016-08-28T13:15:41.669Z,11580
2016-08-28T13:16:41.688Z,11648
2016-08-28T13:17:41.694Z,11844
2016-08-28T13:18:41.728Z,12028
2016-08-28T13:19:41.716Z,12360
2016-08-28T13:20:41.732Z,12544
2016-08-28T13:21:41.731Z,12596
2016-08-28T13:22:41.757Z,12664
2016-08-28T13:23:41.753Z,12720
2016-08-28T13:24:41.759Z,12724
2016-08-28T13:25:41.780Z,12716
2016-08-28T13:26:41.793Z,12688
2016-08-28T13:27:41.841Z,12600
2016-08-28T13:28:41.815Z,12416
2016-08-28T13:29:41.823Z,12224
2016-08-28T13:30:41.809Z,12016
2016-08-28T13:31:41.846Z,11756
2016-08-28T13:32:41.832Z,11428
2016-08-28T13:33:41.846Z,11080
2016-08-28T13:34:41.882Z,10696
2016-08-28T13:35:41.859Z,10364
2016-08-28T13:36:41.884Z,10000
2016-08-28T13:37:41.894Z,9620
2016-08-28T13:38:41.917Z,9196
2016-08-28T13:39:41.911Z,8836
2016-08-28T13:40:41.937Z,8708